PGUA/UAM METAR and TAF weather

Enter ICAO airport designator
Station Type Date Time Source
PGUA METAR 2021/04/14 19:57 UTC NOAA

PGUA 141957Z 12012KT 10SM BKN013 26/23 A2980 RMK AO2A SLP082 T02620232 $


Station Type Date Time Source
PGUA Decoded METAR 2021/04/14 19:57 UTC NOAA

Andersen, Mariana Is, Andersen Air Force Base, GU, United States (PGUA) 13-35N 144-56E 187M
Apr 14, 2021 - 03:57 PM EDT / 2021.04.14 1957 UTC
Wind: from the ESE (120 degrees) at 14 MPH (12 KT):0
Visibility: 10 mile(s):0
Sky conditions: mostly cloudy
Temperature: 79.2 F (26.2 C)
Dew Point: 73.8 F (23.2 C)
Relative Humidity: 83%
Pressure (altimeter): 29.8 in. Hg (1009 hPa)
ob: PGUA 141957Z 12012KT 10SM BKN013 26/23 A2980 RMK AO2A SLP082 T02620232
cycle: 20

Station Type Date Time Source
PGUA TAF 2021/04/14 18:06 UTC NOAA

TAF TAF PGUA 141800Z 1418/1524 13011KT 9999 VCSH SCT012 BKN300 QNH2978INS
TEMPO 1418/1424 BKN012
BECMG 1500/1501 11015KT 9999 NSW SCT012 SCT300 QNH2975INS TX30/1501Z TN25/1518Z

Example: see airport list